Time;durP1;ratioP1;P1;durP2;ratioP2;P2;SDS_P1;SDS_P2;PMS_P1;PMS_P2;Temp;Humidity;BMP_temperature;BMP_pressure;BME280_temperature;BME280_humidity;BME280_pressure;Samples;Min_cycle;Max_cycle;Signal;HPM_P1;HPM_P2
2022/11/20 00:01:40;;;;;;;36.50;16.00;;;;;;;-3.40;92.08;99509.20;105832;1293;66405;-79
2022/11/20 00:04:28;;;;;;;32.10;14.60;;;;;;;-3.43;92.27;99509.11;105933;1284;72540;-80
2022/11/20 00:07:16;;;;;;;36.60;16.70;;;;;;;-3.45;92.65;99508.64;105918;1292;57549;-79
2022/11/20 00:10:04;;;;;;;33.70;15.30;;;;;;;-3.41;93.01;99508.54;105900;1291;61733;-78
2022/11/20 00:12:52;;;;;;;36.30;15.40;;;;;;;-3.35;93.18;99504.55;105786;1292;74275;-79
2022/11/20 00:15:39;;;;;;;37.40;17.40;;;;;;;-3.33;92.63;99504.14;105189;1284;1002942;-79
2022/11/20 00:18:27;;;;;;;34.90;15.60;;;;;;;-3.30;92.68;99505.10;105913;1285;72651;-80
2022/11/20 00:21:20;;;;;;;34.40;15.60;;;;;;;-3.27;92.74;99499.79;105810;1292;57190;-78
2022/11/20 00:24:10;;;;;;;34.00;14.80;;;;;;;-3.21;92.63;99501.69;105219;1292;1002303;-79
2022/11/20 00:26:58;;;;;;;37.50;16.50;;;;;;;-3.19;92.40;99500.42;105202;1291;1002182;-83
2022/11/20 00:29:46;;;;;;;37.00;15.70;;;;;;;-3.22;92.12;99502.79;105757;1294;67559;-81
2022/11/20 00:32:34;;;;;;;31.00;12.90;;;;;;;-3.29;92.03;99496.03;105756;1286;72632;-82
2022/11/20 00:35:21;;;;;;;27.40;12.00;;;;;;;-3.31;92.42;99499.22;105682;1298;58495;-80
2022/11/20 00:38:09;;;;;;;25.60;11.60;;;;;;;-3.36;92.33;99497.81;105782;1288;60364;-81
2022/11/20 00:40:59;;;;;;;28.60;12.40;;;;;;;-3.42;92.81;99497.28;105939;1285;71508;-82
2022/11/20 00:43:47;;;;;;;36.40;16.30;;;;;;;-3.47;93.36;99495.68;105841;1292;67908;-82
2022/11/20 00:46:35;;;;;;;35.10;15.80;;;;;;;-3.45;93.12;99495.12;105793;1287;73541;-82
2022/11/20 00:49:23;;;;;;;38.70;17.40;;;;;;;-3.41;93.33;99493.46;105831;1287;58461;-79
2022/11/20 00:52:10;;;;;;;38.70;17.60;;;;;;;-3.36;93.24;99495.90;104983;1291;1002731;-81
2022/11/20 00:54:58;;;;;;;31.20;13.20;;;;;;;-3.28;93.23;99496.70;105851;1287;72858;-80
2022/11/20 00:57:46;;;;;;;37.10;16.90;;;;;;;-3.25;93.16;99497.48;104960;1292;1014912;-80
2022/11/20 01:00:34;;;;;;;38.20;16.70;;;;;;;-3.23;92.79;99496.40;105947;1291;72410;-79
2022/11/20 01:03:22;;;;;;;32.60;14.10;;;;;;;-3.22;92.78;99498.44;105939;1291;57218;-78
2022/11/20 01:06:17;;;;;;;27.40;11.40;;;;;;;-3.21;92.80;99497.73;105196;1284;1002234;-80
2022/11/20 01:09:14;;;;;;;36.40;16.00;;;;;;;-3.24;92.55;99498.67;105913;1285;72750;-79
2022/11/20 01:12:02;;;;;;;40.40;16.70;;;;;;;-3.28;92.55;99499.30;105923;1285;67326;-78
2022/11/20 01:14:50;;;;;;;39.90;15.60;;;;;;;-3.28;92.78;99502.44;105810;1284;72446;-79
2022/11/20 01:17:37;;;;;;;41.60;16.50;;;;;;;-3.31;92.61;99501.32;105911;1292;59945;-79
2022/11/20 01:20:25;;;;;;;40.90;17.30;;;;;;;-3.34;92.54;99497.77;105917;1292;60904;-80
2022/11/20 01:23:13;;;;;;;28.10;13.50;;;;;;;-3.38;92.32;99493.55;105924;1292;71762;-79
2022/11/20 01:26:04;;;;;;;42.00;17.70;;;;;;;-3.49;92.57;99494.53;105169;1292;1002402;-78
2022/11/20 01:28:53;;;;;;;36.20;14.80;;;;;;;-3.62;92.77;99491.45;105918;1288;72559;-78
2022/11/20 01:31:42;;;;;;;31.60;13.30;;;;;;;-3.70;93.02;99499.46;105789;1292;60034;-78
2022/11/20 01:34:29;;;;;;;35.10;15.80;;;;;;;-3.75;93.23;99494.40;105168;1283;1002417;-79
2022/11/20 01:37:17;;;;;;;30.40;13.60;;;;;;;-3.78;93.03;99498.85;105170;1292;1002538;-79
2022/11/20 01:40:06;;;;;;;24.70;10.60;;;;;;;-3.81;93.33;99495.79;105944;1292;66983;-80
2022/11/20 01:43:23;;;;;;;36.00;15.50;;;;;;;-3.84;92.99;99499.52;105172;1285;1002303;-79
2022/11/20 01:46:18;;;;;;;26.10;10.80;;;;;;;-3.84;92.93;99499.02;105769;1291;58512;-81
2022/11/20 01:50:13;;;;;;;31.00;13.70;;;;;;;-3.85;92.88;99501.47;105085;1295;1002409;-80
2022/11/20 01:53:10;;;;;;;30.30;12.80;;;;;;;-3.82;92.82;99500.33;105852;1292;73831;-82
2022/11/20 01:56:01;;;;;;;32.10;15.00;;;;;;;-3.79;92.63;99501.11;105741;1292;66188;-82
2022/11/20 01:58:56;;;;;;;28.70;13.10;;;;;;;-3.72;92.39;99499.89;105912;1285;72690;-81
2022/11/20 02:01:43;;;;;;;27.60;12.00;;;;;;;-3.67;92.39;99500.97;105058;1295;1002307;-81
2022/11/20 02:04:31;;;;;;;26.00;9.90;;;;;;;-3.63;92.01;99500.51;105778;1292;58832;-80
2022/11/20 02:07:20;;;;;;;28.90;12.30;;;;;;;-3.63;91.42;99498.06;105793;1292;72725;-80
2022/11/20 02:10:07;;;;;;;31.00;13.90;;;;;;;-3.64;91.11;99497.58;105939;1291;68069;-79
2022/11/20 02:16:03;;;;;;;31.20;13.70;;;;;;;-3.65;91.18;99499.86;104321;1291;1015476;-78
2022/11/20 02:18:54;;;;;;;31.40;12.70;;;;;;;-3.63;91.32;99500.14;105923;1284;58695;-79
2022/11/20 02:22:07;;;;;;;33.10;14.70;;;;;;;-3.60;91.32;99502.30;105165;1292;1002552;-79
2022/11/20 02:24:58;;;;;;;29.90;13.80;;;;;;;-3.55;91.32;99505.65;105907;1284;67966;-80
2022/11/20 02:27:46;;;;;;;30.60;12.60;;;;;;;-3.54;91.38;99506.14;105931;1292;71253;-79
2022/11/20 02:30:34;;;;;;;29.90;14.00;;;;;;;-3.52;91.33;99505.58;105089;1299;1002944;-80
2022/11/20 02:33:22;;;;;;;35.90;15.20;;;;;;;-3.50;91.56;99505.52;105083;1291;1003034;-78
2022/11/20 02:36:14;;;;;;;34.10;13.10;;;;;;;-3.51;91.64;99504.31;106045;1286;73111;-79
2022/11/20 02:39:03;;;;;;;39.40;16.90;;;;;;;-3.51;91.26;99499.45;104747;1292;1002806;-77
2022/11/20 02:41:53;;;;;;;36.50;16.80;;;;;;;-3.48;91.52;99500.92;105912;1291;72534;-79
2022/11/20 02:44:41;;;;;;;35.70;16.40;;;;;;;-3.44;91.55;99502.04;105791;1295;58450;-80
2022/11/20 02:47:29;;;;;;;37.00;15.90;;;;;;;-3.41;91.61;99499.70;105955;1292;58314;-79
2022/11/20 02:50:17;;;;;;;33.10;14.90;;;;;;;-3.39;91.40;99499.46;105180;1292;1002589;-80
2022/11/20 02:53:04;;;;;;;30.80;15.10;;;;;;;-3.40;91.35;99497.05;105190;1292;1002586;-79
2022/11/20 02:55:52;;;;;;;39.40;17.60;;;;;;;-3.43;91.51;99496.26;105197;1292;1002750;-80
2022/11/20 02:58:40;;;;;;;36.10;17.10;;;;;;;-3.44;91.65;99493.01;105884;1291;59916;-79
2022/11/20 03:01:28;;;;;;;37.60;16.80;;;;;;;-3.45;91.60;99487.50;105931;1292;60018;-81
2022/11/20 03:04:15;;;;;;;39.20;16.80;;;;;;;-3.46;91.85;99485.60;105926;1276;71760;-79
2022/11/20 03:07:03;;;;;;;35.30;16.70;;;;;;;-3.43;91.96;99482.74;105820;1292;67129;-80
2022/11/20 03:09:54;;;;;;;37.50;16.00;;;;;;;-3.44;91.83;99484.85;105919;1292;72674;-79
2022/11/20 03:12:42;;;;;;;37.40;16.20;;;;;;;-3.45;91.71;99484.20;105922;1298;57927;-80
2022/11/20 03:15:30;;;;;;;39.20;16.40;;;;;;;-3.46;92.15;99486.64;105924;1292;58652;-79
2022/11/20 03:18:17;;;;;;;38.40;16.20;;;;;;;-3.45;91.97;99489.77;105801;1293;72965;-78
2022/11/20 03:21:06;;;;;;;38.00;16.40;;;;;;;-3.43;91.93;99491.58;105806;1296;67454;-78
2022/11/20 03:23:54;;;;;;;37.00;17.40;;;;;;;-3.41;92.07;99495.36;105916;1292;72650;-79
2022/11/20 03:26:42;;;;;;;37.70;16.80;;;;;;;-3.39;91.81;99491.16;105788;1285;59355;-79
2022/11/20 03:29:30;;;;;;;34.40;14.20;;;;;;;-3.37;91.96;99491.59;105174;1292;1002655;-79
2022/11/20 03:32:17;;;;;;;25.80;11.40;;;;;;;-3.38;91.70;99487.12;105947;1292;71747;-78
2022/11/20 03:35:06;;;;;;;40.70;17.70;;;;;;;-3.42;91.68;99483.92;105949;1291;67882;-78
2022/11/20 03:37:53;;;;;;;33.10;16.30;;;;;;;-3.42;91.94;99480.63;105939;1291;72447;-78
2022/11/20 03:40:41;;;;;;;35.10;16.10;;;;;;;-3.40;91.70;99479.90;105912;1292;57112;-78
2022/11/20 03:43:30;;;;;;;38.10;15.50;;;;;;;-3.38;91.72;99475.84;105916;1292;58868;-78
2022/11/20 03:46:17;;;;;;;37.90;15.70;;;;;;;-3.39;91.63;99478.48;105089;1288;1002326;-77
2022/11/20 03:49:05;;;;;;;35.50;16.40;;;;;;;-3.45;91.37;99470.83;105192;1292;1002301;-78
2022/11/20 03:51:53;;;;;;;32.10;14.10;;;;;;;-3.43;91.46;99466.96;105920;1292;72284;-78
2022/11/20 03:54:41;;;;;;;39.00;16.70;;;;;;;-3.42;91.57;99466.40;105921;1282;57581;-77
2022/11/20 03:57:28;;;;;;;43.00;17.60;;;;;;;-3.38;91.76;99465.28;105919;1289;61566;-79
2022/11/20 04:00:16;;;;;;;41.60;16.90;;;;;;;-3.34;91.66;99463.05;105924;1292;72629;-79
2022/11/20 04:03:04;;;;;;;30.90;13.50;;;;;;;-3.29;91.58;99461.14;105193;1285;1002438;-79
2022/11/20 04:05:51;;;;;;;28.40;12.20;;;;;;;-3.27;91.66;99457.11;105919;1291;71549;-79
2022/11/20 04:08:41;;;;;;;34.50;16.50;;;;;;;-3.30;91.49;99460.99;105927;1292;57178;-78
2022/11/20 04:11:32;;;;;;;37.50;17.70;;;;;;;-3.33;91.24;99463.55;105916;1285;58903;-79
2022/11/20 04:14:20;;;;;;;40.60;16.60;;;;;;;-3.34;91.28;99458.02;105925;1292;74607;-79
2022/11/20 04:17:08;;;;;;;39.10;16.70;;;;;;;-3.31;91.54;99450.46;105939;1290;66184;-80
2022/11/20 04:19:56;;;;;;;34.70;14.80;;;;;;;-3.28;91.40;99454.88;105909;1292;72712;-79
2022/11/20 04:22:44;;;;;;;29.90;13.00;;;;;;;-3.29;91.06;99444.34;105172;1284;1002614;-79
2022/11/20 04:25:32;;;;;;;34.50;14.60;;;;;;;-3.33;91.06;99442.39;105930;1292;61311;-79
2022/11/20 04:28:20;;;;;;;31.00;13.80;;;;;;;-3.36;91.14;99446.28;105923;1290;74317;-80
2022/11/20 04:31:15;;;;;;;37.40;15.70;;;;;;;-3.37;91.30;99450.48;105073;1292;1002271;-80
2022/11/20 04:34:06;;;;;;;36.70;15.50;;;;;;;-3.42;91.30;99446.80;105799;1295;73372;-79
2022/11/20 04:36:53;;;;;;;42.20;16.90;;;;;;;-3.44;91.51;99447.54;105827;1292;58792;-79
2022/11/20 04:39:41;;;;;;;44.70;17.90;;;;;;;-3.47;91.35;99439.49;105921;1293;60107;-80
2022/11/20 04:42:28;;;;;;;37.60;15.40;;;;;;;-3.48;91.62;99433.11;105914;1285;74062;-79
2022/11/20 04:45:16;;;;;;;34.80;14.40;;;;;;;-3.48;91.59;99430.86;105933;1292;66515;-80
2022/11/20 04:48:05;;;;;;;35.00;14.80;;;;;;;-3.48;91.59;99423.75;105175;1292;1002970;-78
2022/11/20 04:50:53;;;;;;;32.70;14.50;;;;;;;-3.48;91.79;99425.84;105947;1281;57958;-78
2022/11/20 04:53:41;;;;;;;32.80;14.10;;;;;;;-3.49;91.62;99424.81;105098;1292;1002133;-79
2022/11/20 04:56:29;;;;;;;41.90;16.10;;;;;;;-3.52;91.50;99424.20;105758;1292;73338;-79
2022/11/20 04:59:17;;;;;;;39.70;17.50;;;;;;;-3.56;91.77;99422.92;105918;1292;66682;-79
2022/11/20 05:02:06;;;;;;;40.50;16.80;;;;;;;-3.55;91.91;99420.69;105893;1291;73514;-79
2022/11/20 05:04:53;;;;;;;39.90;16.40;;;;;;;-3.57;91.94;99422.63;105911;1285;58822;-79
2022/11/20 05:07:41;;;;;;;34.80;15.00;;;;;;;-3.58;92.40;99424.56;105910;1286;60017;-80
2022/11/20 05:10:29;;;;;;;36.20;16.20;;;;;;;-3.58;92.24;99418.16;105199;1291;1002172;-79
2022/11/20 05:13:17;;;;;;;35.70;15.30;;;;;;;-3.55;92.23;99413.39;105205;1286;1002075;-80
2022/11/20 05:16:09;;;;;;;34.80;13.00;;;;;;;-3.55;92.31;99406.95;105923;1292;72352;-80
2022/11/20 05:18:57;;;;;;;35.30;13.60;;;;;;;-3.55;92.32;99410.45;105908;1292;58516;-79
2022/11/20 05:21:44;;;;;;;40.50;16.50;;;;;;;-3.58;92.15;99410.54;105921;1292;60026;-78
2022/11/20 05:24:32;;;;;;;39.40;16.40;;;;;;;-3.61;92.07;99414.25;105198;1292;1015140;-79
2022/11/20 05:27:20;;;;;;;36.00;15.20;;;;;;;-3.68;91.83;99409.42;105196;1291;1002264;-79
2022/11/20 05:30:09;;;;;;;25.20;10.40;;;;;;;-3.77;91.89;99407.27;105901;1291;71560;-78
2022/11/20 05:32:57;;;;;;;41.50;17.60;;;;;;;-3.82;91.99;99410.72;105799;1299;57276;-78
2022/11/20 05:35:45;;;;;;;39.30;16.20;;;;;;;-3.88;91.93;99408.10;105898;1285;61142;-81
2022/11/20 05:38:33;;;;;;;34.00;13.60;;;;;;;-3.90;92.07;99408.70;105853;1293;72667;-78
2022/11/20 05:41:21;;;;;;;32.20;12.50;;;;;;;-3.95;91.99;99404.15;105778;1292;67967;-79
2022/11/20 05:44:12;;;;;;;35.10;13.90;;;;;;;-4.00;92.15;99407.92;105879;1292;73720;-79
2022/11/20 05:47:00;;;;;;;29.80;12.80;;;;;;;-4.03;91.91;99407.67;105015;1292;1002194;-79
2022/11/20 05:49:47;;;;;;;30.00;14.40;;;;;;;-4.10;91.45;99409.60;105922;1291;58634;-78
2022/11/20 05:52:36;;;;;;;21.00;9.40;;;;;;;-4.20;91.42;99410.56;105907;1284;71427;-77
2022/11/20 05:55:23;;;;;;;34.60;14.20;;;;;;;-4.24;91.01;99410.00;105879;1292;67521;-78
2022/11/20 05:58:11;;;;;;;31.70;11.20;;;;;;;-4.23;91.68;99408.57;105867;1292;73823;-78
2022/11/20 06:01:11;;;;;;;32.90;14.00;;;;;;;-4.22;91.51;99407.16;105914;1292;57277;-79
2022/11/20 06:03:59;;;;;;;27.60;12.10;;;;;;;-4.22;91.41;99408.20;105924;1291;60062;-79
2022/11/20 06:06:49;;;;;;;35.30;14.60;;;;;;;-4.27;91.36;99410.77;105896;1292;72996;-78
2022/11/20 06:09:37;;;;;;;27.70;10.00;;;;;;;-4.31;91.07;99406.02;105896;1290;67606;-78
2022/11/20 06:12:24;;;;;;;29.40;10.40;;;;;;;-4.34;91.28;99405.58;105166;1292;1002781;-78
2022/11/20 06:15:13;;;;;;;33.40;12.70;;;;;;;-4.36;90.75;99405.98;105851;1292;59833;-78
2022/11/20 06:18:00;;;;;;;35.50;15.40;;;;;;;-4.40;91.24;99405.05;105922;1285;58666;-78
2022/11/20 06:20:48;;;;;;;28.40;11.20;;;;;;;-4.45;90.91;99400.84;105911;1293;71696;-79
2022/11/20 06:23:37;;;;;;;24.10;9.60;;;;;;;-4.51;90.92;99404.98;105894;1299;67569;-79
2022/11/20 06:26:27;;;;;;;33.00;13.70;;;;;;;-4.56;91.46;99403.41;105155;1292;1002815;-78
2022/11/20 06:29:15;;;;;;;30.20;11.10;;;;;;;-4.60;91.65;99407.12;105144;1291;1003116;-78
2022/11/20 06:32:03;;;;;;;36.60;15.70;;;;;;;-4.59;91.60;99407.97;105140;1281;1002173;-79
2022/11/20 06:34:51;;;;;;;27.10;11.80;;;;;;;-4.56;91.90;99407.20;105890;1292;71615;-80
2022/11/20 06:37:38;;;;;;;33.20;12.80;;;;;;;-4.58;91.37;99408.80;105173;1293;1003078;-78
2022/11/20 06:40:26;;;;;;;34.50;14.30;;;;;;;-4.62;91.40;99409.94;105766;1292;72554;-79
2022/11/20 06:43:14;;;;;;;29.30;12.80;;;;;;;-4.65;91.06;99409.16;105143;1298;1002906;-80
2022/11/20 06:46:02;;;;;;;27.40;11.20;;;;;;;-4.68;90.94;99406.80;105137;1292;1002329;-78
2022/11/20 06:48:50;;;;;;;31.00;12.40;;;;;;;-4.70;91.00;99404.98;105855;1286;72571;-78
2022/11/20 06:51:38;;;;;;;37.90;15.20;;;;;;;-4.75;90.73;99401.82;105111;1292;1002196;-77
2022/11/20 06:54:25;;;;;;;35.60;14.60;;;;;;;-4.79;90.60;99406.39;105840;1286;74045;-76
2022/11/20 06:57:13;;;;;;;31.90;14.10;;;;;;;-4.80;90.82;99406.25;105891;1292;58583;-77
2022/11/20 07:00:01;;;;;;;34.00;14.80;;;;;;;-4.78;90.99;99412.09;105787;1294;58625;-78
2022/11/20 07:02:49;;;;;;;27.40;10.40;;;;;;;-4.77;90.79;99411.91;105870;1291;73899;-76
2022/11/20 07:05:38;;;;;;;33.40;13.40;;;;;;;-4.83;90.75;99415.85;105190;1292;1002628;-74
2022/11/20 07:08:26;;;;;;;25.80;11.00;;;;;;;-4.88;90.64;99418.23;105903;1288;72634;-73
2022/11/20 07:11:14;;;;;;;35.20;13.70;;;;;;;-4.90;91.06;99421.58;105768;1295;57670;-73
2022/11/20 07:14:01;;;;;;;31.40;12.30;;;;;;;-4.90;91.60;99418.79;105743;1295;61551;-72
2022/11/20 07:16:49;;;;;;;33.20;13.80;;;;;;;-4.89;91.13;99418.62;105858;1291;72760;-76
2022/11/20 07:19:37;;;;;;;37.90;17.00;;;;;;;-4.88;90.81;99411.48;105113;1291;1002478;-77
2022/11/20 07:22:26;;;;;;;40.40;16.10;;;;;;;-4.86;90.78;99405.90;105861;1295;73449;-77
2022/11/20 07:25:14;;;;;;;39.40;16.80;;;;;;;-4.82;90.92;99410.82;105735;1285;57239;-77
2022/11/20 07:28:03;;;;;;;40.20;16.20;;;;;;;-4.79;91.03;99413.32;105868;1295;60315;-77
2022/11/20 07:30:53;;;;;;;39.00;16.60;;;;;;;-4.75;90.68;99411.33;105618;1294;72988;-76
2022/11/20 07:33:41;;;;;;;39.20;16.10;;;;;;;-4.69;90.57;99408.41;105068;1290;1002182;-76
2022/11/20 07:36:29;;;;;;;37.20;16.30;;;;;;;-4.60;90.68;99405.06;105304;1295;1002429;-77
2022/11/20 07:39:17;;;;;;;37.50;15.30;;;;;;;-4.52;90.68;99409.88;105329;1287;1002298;-77
2022/11/20 07:42:09;;;;;;;32.60;13.50;;;;;;;-4.45;90.52;99406.22;106074;1287;58627;-76
2022/11/20 07:44:57;;;;;;;31.60;12.70;;;;;;;-4.39;90.13;99403.63;105818;1290;74337;-77
2022/11/20 07:47:45;;;;;;;39.20;16.80;;;;;;;-4.35;89.97;99397.82;105774;1300;69070;-77
2022/11/20 07:50:33;;;;;;;43.00;17.60;;;;;;;-4.28;89.74;99401.95;105762;1295;72463;-77
2022/11/20 07:53:21;;;;;;;38.40;15.40;;;;;;;-4.15;89.88;99404.36;105872;1298;58052;-77
2022/11/20 07:56:09;;;;;;;40.00;17.10;;;;;;;-4.00;89.81;99400.33;105887;1292;61570;-76
2022/11/20 07:58:57;;;;;;;39.30;16.20;;;;;;;-3.84;89.74;99397.41;105861;1297;73865;-77
2022/11/20 08:01:44;;;;;;;34.30;14.90;;;;;;;-3.70;88.93;99393.20;105761;1298;66762;-76
2022/11/20 08:04:33;;;;;;;35.40;15.00;;;;;;;-3.57;88.99;99390.21;105844;1297;71248;-77
2022/11/20 08:07:20;;;;;;;40.50;17.10;;;;;;;-3.44;88.12;99392.23;105851;1295;57258;-76
2022/11/20 08:10:11;;;;;;;27.60;10.60;;;;;;;-3.34;87.63;99387.05;105859;1295;60516;-75
2022/11/20 08:16:05;;;;;;;37.70;16.30;;;;;;;-3.20;86.75;99390.61;105856;1295;67882;-73
2022/11/20 08:18:53;;;;;;;34.10;13.10;;;;;;;-3.21;86.13;99390.11;105851;1295;72604;-73
2022/11/20 08:21:41;;;;;;;38.20;16.60;;;;;;;-3.20;86.02;99389.56;105744;1292;57712;-73
2022/11/20 08:24:29;;;;;;;34.80;14.60;;;;;;;-3.17;85.87;99385.30;105005;1297;1002339;-76
2022/11/20 08:27:17;;;;;;;35.30;15.10;;;;;;;-3.13;85.85;99382.75;105877;1291;73900;-74
2022/11/20 08:30:06;;;;;;;39.00;15.70;;;;;;;-3.07;85.83;99384.13;105880;1286;68822;-75
2022/11/20 08:32:54;;;;;;;37.50;15.70;;;;;;;-2.93;85.96;99381.41;105857;1291;72592;-75
2022/11/20 08:35:42;;;;;;;29.90;13.00;;;;;;;-2.75;86.05;99377.50;105018;1290;1002318;-72
2022/11/20 08:38:31;;;;;;;35.60;15.50;;;;;;;-2.62;85.36;99379.31;105884;1298;60101;-76
2022/11/20 08:41:31;;;;;;;42.40;17.70;;;;;;;-2.47;84.55;99367.69;105556;1296;73851;-77
2022/11/20 08:44:19;;;;;;;34.20;15.00;;;;;;;-2.30;83.81;99360.50;105885;1292;66689;-76
2022/11/20 08:47:06;;;;;;;39.20;17.50;;;;;;;-2.29;83.04;99362.52;105796;1293;74100;-79
2022/11/20 08:49:54;;;;;;;34.50;13.90;;;;;;;-2.18;83.10;99352.41;105913;1289;57309;-77
2022/11/20 08:52:42;;;;;;;34.60;15.70;;;;;;;-2.08;82.91;99345.76;105926;1291;60013;-79
2022/11/20 08:55:30;;;;;;;36.60;14.90;;;;;;;-1.96;82.83;99344.96;105202;1292;1002293;-77
2022/11/20 08:58:17;;;;;;;38.50;15.50;;;;;;;-1.81;82.35;99346.65;105941;1289;67115;-72
2022/11/20 09:01:05;;;;;;;40.30;17.20;;;;;;;-1.86;81.99;99346.51;105905;1291;72387;-71
2022/11/20 09:03:56;;;;;;;40.30;16.00;;;;;;;-1.91;82.13;99346.17;105769;1292;58382;-72
2022/11/20 09:06:44;;;;;;;40.80;15.90;;;;;;;-1.98;81.68;99348.38;105664;1291;61437;-74
2022/11/20 09:09:32;;;;;;;39.40;16.20;;;;;;;-2.11;81.56;99351.62;105904;1292;71927;-74
2022/11/20 09:12:20;;;;;;;39.20;16.00;;;;;;;-2.25;81.63;99349.01;105904;1299;67570;-73
2022/11/20 09:15:08;;;;;;;38.90;15.60;;;;;;;-2.33;82.46;99347.05;105901;1301;72356;-74
2022/11/20 09:18:02;;;;;;;38.20;14.40;;;;;;;-2.34;82.75;99344.48;105880;1292;57788;-72
2022/11/20 09:20:51;;;;;;;42.60;17.50;;;;;;;-2.38;82.84;99346.53;105860;1293;58853;-77
2022/11/20 09:23:40;;;;;;;41.40;16.80;;;;;;;-2.29;83.45;99343.40;105693;1294;74123;-75
2022/11/20 09:26:28;;;;;;;43.40;17.80;;;;;;;-2.19;83.35;99345.65;105002;1293;1002331;-70
2022/11/20 09:29:19;;;;;;;41.30;16.40;;;;;;;-2.10;83.12;99343.06;105820;1298;71735;-77
2022/11/20 09:32:07;;;;;;;41.70;16.70;;;;;;;-2.04;83.12;99337.64;105647;1287;58077;-75
2022/11/20 09:34:55;;;;;;;44.30;17.30;;;;;;;-2.02;82.40;99336.34;105842;1298;60110;-77
2022/11/20 09:37:44;;;;;;;38.50;16.00;;;;;;;-1.94;82.64;99333.27;105865;1291;72809;-77
2022/11/20 09:40:34;;;;;;;36.30;15.10;;;;;;;-1.80;82.46;99326.47;105856;1292;67849;-72
2022/11/20 09:43:44;;;;;;;40.50;16.20;;;;;;;-1.61;81.59;99323.11;105730;1292;72634;-72
2022/11/20 09:46:43;;;;;;;40.40;16.30;;;;;;;-1.22;80.86;99321.70;105768;1290;58807;-75
2022/11/20 09:50:14;;;;;;;40.90;17.20;;;;;;;-1.02;79.93;99319.16;105847;1294;60462;-76
2022/11/20 09:53:36;;;;;;;32.80;13.80;;;;;;;-0.88;79.56;99313.17;104998;1293;1002289;-77
2022/11/20 09:56:25;;;;;;;39.30;16.80;;;;;;;-0.90;79.10;99310.84;105710;1295;67976;-72
2022/11/20 09:59:40;;;;;;;40.00;17.20;;;;;;;-0.97;79.24;99314.08;105799;1295;71540;-76
2022/11/20 10:02:40;;;;;;;32.80;12.90;;;;;;;-1.19;78.62;99310.98;105877;1290;57183;-78
2022/11/20 10:05:44;;;;;;;40.80;15.60;;;;;;;-1.46;79.08;99310.18;104999;1294;1001998;-78
2022/11/20 10:08:44;;;;;;;35.00;13.00;;;;;;;-1.66;79.85;99311.82;105859;1298;71730;-75
2022/11/20 10:11:59;;;;;;;43.90;16.50;;;;;;;-1.79;80.60;99303.83;105729;1288;67532;-74
2022/11/20 10:15:24;;;;;;;35.00;15.40;;;;;;;-1.86;81.46;99305.66;105859;1292;70199;-73
2022/11/20 10:18:37;;;;;;;34.90;14.10;;;;;;;-1.87;81.90;99301.86;105021;1292;1002387;-77
2022/11/20 10:21:47;;;;;;;33.50;12.00;;;;;;;-1.88;81.68;99300.88;104969;1300;1002109;-77
2022/11/20 10:24:43;;;;;;;37.20;14.70;;;;;;;-1.87;81.99;99299.27;105888;1295;72780;-79
2022/11/20 10:27:40;;;;;;;34.80;13.90;;;;;;;-1.76;81.33;99291.87;105962;1290;65651;-73
2022/11/20 10:30:30;;;;;;;31.10;12.30;;;;;;;-1.67;81.08;99287.70;106002;1292;71493;-74
2022/11/20 10:33:23;;;;;;;38.70;16.40;;;;;;;-1.62;81.06;99281.93;105228;1292;1002324;-74
2022/11/20 10:36:30;;;;;;;31.10;12.80;;;;;;;-1.57;80.41;99283.28;105848;1295;58974;-78
2022/11/20 10:39:20;;;;;;;30.70;11.70;;;;;;;-1.60;80.09;99283.91;105691;1298;73836;-76
2022/11/20 10:42:16;;;;;;;36.70;14.60;;;;;;;-1.59;80.37;99282.51;105001;1295;1002890;-77
2022/11/20 10:45:41;;;;;;;37.20;15.70;;;;;;;-1.59;80.45;99283.20;105671;1301;72478;-78
2022/11/20 10:48:32;;;;;;;37.80;14.30;;;;;;;-1.59;80.29;99283.21;105681;1297;57712;-73
2022/11/20 10:51:44;;;;;;;38.60;14.90;;;;;;;-1.60;80.25;99282.04;105678;1296;58691;-78
2022/11/20 10:55:02;;;;;;;33.40;13.80;;;;;;;-1.56;80.50;99281.69;105809;1293;71509;-76
2022/11/20 10:58:25;;;;;;;31.60;13.10;;;;;;;-1.55;79.95;99280.61;105817;1295;66994;-76
2022/11/20 11:01:24;;;;;;;35.90;15.10;;;;;;;-1.60;80.18;99275.39;105716;1292;71017;-77
2022/11/20 11:04:42;;;;;;;35.40;14.30;;;;;;;-1.63;80.27;99273.63;105065;1294;1002960;-76
2022/11/20 11:07:38;;;;;;;34.90;13.90;;;;;;;-1.63;80.87;99268.05;105752;1278;59743;-77
2022/11/20 11:10:57;;;;;;;39.20;16.00;;;;;;;-1.58;81.13;99263.67;105797;1294;72967;-76
2022/11/20 11:13:45;;;;;;;37.30;15.30;;;;;;;-1.42;80.60;99264.76;105826;1292;66389;-75
2022/11/20 11:16:33;;;;;;;40.80;16.10;;;;;;;-1.19;79.62;99263.80;105889;1299;74050;-77
2022/11/20 11:19:21;;;;;;;38.60;14.90;;;;;;;-1.02;79.27;99253.86;105158;1291;1002216;-78
2022/11/20 11:22:17;;;;;;;35.20;14.70;;;;;;;-0.84;78.88;99256.57;105727;1295;61614;-80
2022/11/20 11:25:38;;;;;;;35.50;13.40;;;;;;;-0.65;78.33;99255.73;105737;1292;73023;-76
2022/11/20 11:28:27;;;;;;;40.90;16.20;;;;;;;-0.42;77.42;99243.73;105004;1292;1002364;-75
2022/11/20 11:31:28;;;;;;;39.50;15.20;;;;;;;-0.36;77.61;99242.22;105784;1287;73112;-78
2022/11/20 11:34:17;;;;;;;36.50;15.40;;;;;;;-0.32;77.21;99246.77;105070;1295;1002286;-71
2022/11/20 11:37:14;;;;;;;35.30;14.30;;;;;;;-0.31;77.01;99243.93;105878;1291;60148;-72
2022/11/20 11:40:04;;;;;;;39.10;15.60;;;;;;;-0.42;76.29;99239.73;105624;1292;72769;-74
2022/11/20 11:46:35;;;;;;;37.20;15.60;;;;;;;-0.67;76.73;99239.29;105788;1292;72696;-77
2022/11/20 11:49:23;;;;;;;37.70;14.90;;;;;;;-0.74;77.36;99238.19;105877;1289;57357;-77
2022/11/20 11:52:24;;;;;;;37.00;14.30;;;;;;;-0.74;77.83;99234.70;105874;1287;60366;-73
2022/11/20 11:55:40;;;;;;;38.70;13.70;;;;;;;-0.65;78.12;99233.61;105031;1300;1002829;-78
2022/11/20 11:58:51;;;;;;;38.00;14.90;;;;;;;-0.54;77.85;99232.61;105769;1295;66261;-74
2022/11/20 12:01:47;;;;;;;37.80;15.80;;;;;;;-0.49;77.21;99222.98;105729;1295;71069;-76
2022/11/20 12:04:43;;;;;;;40.70;15.30;;;;;;;-0.50;76.85;99218.64;105722;1295;57257;-73
2022/11/20 12:07:50;;;;;;;37.10;15.60;;;;;;;-0.52;76.60;99219.43;105000;1291;1002248;-75
2022/11/20 12:11:06;;;;;;;39.60;14.80;;;;;;;-0.61;75.62;99219.85;105712;1294;73076;-74
2022/11/20 12:14:23;;;;;;;37.20;15.90;;;;;;;-0.68;76.42;99216.84;105132;1295;1002258;-73
2022/11/20 12:17:14;;;;;;;38.80;15.10;;;;;;;-0.70;76.77;99214.14;105856;1291;72659;-73
2022/11/20 12:20:02;;;;;;;37.50;13.60;;;;;;;-0.72;76.65;99203.26;105736;1295;57337;-73
2022/11/20 12:23:14;;;;;;;35.80;14.90;;;;;;;-0.71;76.89;99204.63;105861;1292;58867;-75
2022/11/20 12:26:15;;;;;;;38.10;15.10;;;;;;;-0.73;76.63;99198.61;105032;1295;1002531;-74
2022/11/20 12:29:22;;;;;;;36.70;14.60;;;;;;;-0.74;77.02;99196.02;105866;1298;67836;-73
2022/11/20 12:32:18;;;;;;;28.90;12.30;;;;;;;-0.75;76.69;99193.14;105827;1292;72709;-73
2022/11/20 12:35:48;;;;;;;39.10;15.70;;;;;;;-0.80;76.74;99190.73;105701;1300;58536;-75
2022/11/20 12:38:52;;;;;;;39.30;15.40;;;;;;;-0.85;76.57;99183.98;105842;1284;59000;-74
2022/11/20 12:45:58;;;;;;;40.90;15.30;;;;;;;-0.92;77.25;99183.05;105730;1294;67800;-76
2022/11/20 12:49:43;;;;;;;41.40;15.50;;;;;;;-1.00;76.91;99178.73;104978;1292;1002348;-73
2022/11/20 12:52:59;;;;;;;30.10;12.10;;;;;;;-1.12;77.63;99176.83;105201;1300;57218;-73
2022/11/20 12:55:56;;;;;;;43.00;15.90;;;;;;;-1.17;78.57;99172.35;105171;1308;60103;-72
2022/11/20 12:59:13;;;;;;;43.10;18.70;;;;;;;-1.20;79.40;99172.44;105201;1299;73099;-72
2022/11/20 13:02:49;;;;;;;46.50;18.30;;;;;;;-1.35;80.24;99169.08;105194;1300;67997;-73
2022/11/20 13:06:04;;;;;;;47.80;18.00;;;;;;;-1.49;80.97;99168.84;104973;1301;73547;-70
2022/11/20 13:08:58;;;;;;;48.80;19.30;;;;;;;-1.59;81.81;99160.35;104496;1301;1002524;-69
2022/11/20 13:12:07;;;;;;;46.80;17.60;;;;;;;-1.64;82.29;99158.16;105119;1301;60125;-71
2022/11/20 13:15:11;;;;;;;46.90;18.90;;;;;;;-1.68;82.67;99152.42;105209;1293;73261;-76